createdAt,value
2022-12-18T00:01:23.490Z,12.15
2022-12-18T00:03:51.744Z,14.23
2022-12-18T00:06:19.473Z,12.40
2022-12-18T00:08:47.733Z,16.83
2022-12-18T00:11:18.238Z,12.40
2022-12-18T00:13:45.432Z,15.65
2022-12-18T00:16:14.735Z,12.07
2022-12-18T00:18:42.659Z,11.25
2022-12-18T00:21:12.214Z,12.50
2022-12-18T00:23:41.371Z,15.25
2022-12-18T00:26:19.067Z,9.50
2022-12-18T00:28:47.133Z,12.40
2022-12-18T00:31:20.211Z,15.20
2022-12-18T00:33:47.611Z,11.43
2022-12-18T00:36:28.915Z,10.15
2022-12-18T00:38:57.386Z,12.73
2022-12-18T00:41:43.664Z,11.32
2022-12-18T00:44:13.072Z,13.48
2022-12-18T00:46:40.559Z,12.82
2022-12-18T00:49:08.096Z,10.50
2022-12-18T00:51:35.283Z,12.23
2022-12-18T00:54:02.433Z,11.10
2022-12-18T00:56:29.570Z,11.82
2022-12-18T00:58:56.633Z,11.45
2022-12-18T01:01:23.903Z,11.63
2022-12-18T01:03:51.002Z,11.18
2022-12-18T01:06:18.598Z,11.10
2022-12-18T01:08:45.857Z,12.48
2022-12-18T01:11:15.530Z,11.50
2022-12-18T01:13:42.785Z,9.25
2022-12-18T01:16:11.973Z,11.57
2022-12-18T01:18:39.057Z,12.07
2022-12-18T01:21:14.683Z,12.57
2022-12-18T01:23:42.238Z,14.23
2022-12-18T01:26:17.221Z,15.15
2022-12-18T01:28:45.293Z,11.52
2022-12-18T01:31:16.288Z,12.13
2022-12-18T01:33:43.691Z,14.85
2022-12-18T01:36:33.454Z,12.23
2022-12-18T01:39:12.361Z,12.57
2022-12-18T01:41:57.997Z,11.77
2022-12-18T01:44:58.167Z,10.90
2022-12-18T01:47:42.791Z,9.90
2022-12-18T01:50:20.714Z,11.07
2022-12-18T01:52:55.097Z,12.00
2022-12-18T01:55:30.516Z,9.23
2022-12-18T01:58:00.464Z,11.07
2022-12-18T02:00:28.878Z,11.85
2022-12-18T02:02:56.107Z,11.07
2022-12-18T02:05:44.263Z,10.50
2022-12-18T02:08:44.908Z,12.65
2022-12-18T02:11:35.228Z,13.00
2022-12-18T02:14:19.438Z,11.75
2022-12-18T02:16:59.529Z,10.02
2022-12-18T02:19:39.196Z,14.23
2022-12-18T02:22:27.681Z,11.10
2022-12-18T02:25:13.288Z,11.88
2022-12-18T02:27:42.045Z,12.15
2022-12-18T02:30:11.067Z,11.05
2022-12-18T02:32:49.281Z,8.60
2022-12-18T02:35:25.059Z,9.65
2022-12-18T02:37:52.877Z,10.35
2022-12-18T02:40:23.007Z,11.50
2022-12-18T02:42:50.088Z,12.30
2022-12-18T02:45:17.260Z,12.63
2022-12-18T02:47:47.685Z,11.68
2022-12-18T02:50:27.098Z,10.60
2022-12-18T02:53:12.602Z,13.43
2022-12-18T02:55:45.880Z,9.27
2022-12-18T02:58:50.808Z,6.38
2022-12-18T03:04:02.466Z,8.63
2022-12-18T03:06:38.424Z,7.80
2022-12-18T03:09:20.631Z,8.65
2022-12-18T03:12:14.050Z,9.07
2022-12-18T03:14:43.176Z,8.80
2022-12-18T03:17:14.794Z,8.85
2022-12-18T03:19:43.370Z,9.95
2022-12-18T03:22:11.743Z,9.23
2022-12-18T03:24:41.687Z,8.57
2022-12-18T03:27:13.662Z,9.80
2022-12-18T03:29:46.905Z,8.02
2022-12-18T03:32:28.716Z,8.15
2022-12-18T03:34:59.009Z,9.35
2022-12-18T03:37:26.136Z,8.48
2022-12-18T03:39:53.233Z,7.53
2022-12-18T03:42:49.465Z,10.52
2022-12-18T03:45:37.252Z,10.15
2022-12-18T03:48:30.873Z,9.77
2022-12-18T03:51:02.797Z,9.50
2022-12-18T03:53:51.633Z,11.82
2022-12-18T03:56:22.353Z,10.52
2022-12-18T03:58:51.598Z,10.63
2022-12-18T04:01:21.176Z,11.25
2022-12-18T04:03:50.644Z,7.25
2022-12-18T04:06:18.686Z,11.07
2022-12-18T04:08:46.531Z,16.58
2022-12-18T04:11:13.658Z,10.02
2022-12-18T04:13:41.217Z,9.10
2022-12-18T04:16:10.692Z,8.52
2022-12-18T04:18:38.068Z,10.13
2022-12-18T04:21:05.240Z,8.13
2022-12-18T04:23:32.374Z,8.82
2022-12-18T04:26:00.844Z,8.68
2022-12-18T04:28:27.868Z,10.27
2022-12-18T04:30:54.981Z,10.32
2022-12-18T04:33:22.069Z,9.63
2022-12-18T04:35:49.166Z,10.10
2022-12-18T04:38:16.688Z,11.30
2022-12-18T04:40:44.411Z,10.95
2022-12-18T04:43:11.498Z,10.70
2022-12-18T04:45:38.860Z,11.10
2022-12-18T04:48:07.846Z,10.27
2022-12-18T04:50:34.853Z,10.15
2022-12-18T04:53:02.026Z,11.30
2022-12-18T04:55:29.254Z,12.25
2022-12-18T04:57:56.396Z,9.98
2022-12-18T05:00:24.180Z,10.40
2022-12-18T05:02:51.351Z,12.02
2022-12-18T05:05:18.589Z,10.18
2022-12-18T05:07:45.609Z,11.38
2022-12-18T05:10:13.193Z,12.75
2022-12-18T05:12:59.424Z,10.68
2022-12-18T05:15:32.865Z,13.10
2022-12-18T05:18:00.960Z,10.90
2022-12-18T05:20:28.867Z,11.23
2022-12-18T05:22:56.719Z,13.98
2022-12-18T05:25:24.907Z,12.45
2022-12-18T05:27:52.041Z,11.52
2022-12-18T05:30:19.085Z,10.98
2022-12-18T05:32:46.182Z,14.10
2022-12-18T05:35:13.275Z,8.90
2022-12-18T05:37:43.309Z,11.27
2022-12-18T05:40:11.706Z,14.40
2022-12-18T05:42:39.048Z,13.57
2022-12-18T05:45:07.887Z,10.27
2022-12-18T05:47:35.000Z,12.82
2022-12-18T05:50:02.062Z,12.07
2022-12-18T05:52:29.111Z,12.73
2022-12-18T05:54:56.098Z,10.70
2022-12-18T05:57:23.151Z,11.95
2022-12-18T05:59:50.199Z,12.60
2022-12-18T06:02:17.744Z,11.82
2022-12-18T06:04:44.881Z,15.05
2022-12-18T06:07:11.965Z,11.25
2022-12-18T06:09:41.034Z,12.93
2022-12-18T06:12:08.204Z,12.43
2022-12-18T06:14:35.293Z,12.80
2022-12-18T06:17:02.495Z,12.77
2022-12-18T06:19:29.540Z,12.25
2022-12-18T06:21:58.899Z,13.45
2022-12-18T06:24:26.021Z,10.48
2022-12-18T06:26:53.155Z,14.32
2022-12-18T06:29:20.220Z,14.55
2022-12-18T06:31:47.278Z,9.77
2022-12-18T06:34:14.395Z,11.43
2022-12-18T06:36:42.463Z,11.45
2022-12-18T06:39:09.473Z,16.00
2022-12-18T06:41:37.541Z,14.38
2022-12-18T06:44:05.033Z,11.85
2022-12-18T06:46:33.325Z,14.82
2022-12-18T06:49:00.381Z,13.02
2022-12-18T06:51:28.500Z,11.07
2022-12-18T06:53:55.626Z,11.10
2022-12-18T06:56:23.214Z,16.75
2022-12-18T06:58:51.395Z,12.73
2022-12-18T07:01:18.588Z,11.57
2022-12-18T07:03:46.344Z,16.27
2022-12-18T07:06:21.200Z,10.00
2022-12-18T07:08:49.528Z,14.55
2022-12-18T07:11:17.139Z,12.68
2022-12-18T07:13:44.985Z,12.95
2022-12-18T07:16:24.221Z,13.35
2022-12-18T07:18:52.973Z,9.90
2022-12-18T07:21:21.461Z,13.55
2022-12-18T07:23:49.465Z,15.80
2022-12-18T07:26:18.951Z,11.95
2022-12-18T07:28:46.066Z,12.13
2022-12-18T07:31:18.966Z,11.95
2022-12-18T07:33:47.526Z,14.85
2022-12-18T07:36:15.284Z,15.13
2022-12-18T07:38:42.910Z,13.48
2022-12-18T07:41:12.547Z,12.75
2022-12-18T07:43:41.064Z,15.68
2022-12-18T07:46:10.605Z,20.42
2022-12-18T07:48:40.691Z,18.20
2022-12-18T07:51:08.589Z,13.70
2022-12-18T07:53:37.171Z,15.20
2022-12-18T07:58:55.084Z,12.98
2022-12-18T08:01:22.263Z,12.52
2022-12-18T08:03:50.201Z,11.10
2022-12-18T08:06:24.320Z,12.48
2022-12-18T08:08:56.665Z,10.07
2022-12-18T08:11:25.318Z,13.40
2022-12-18T08:13:52.527Z,13.27
2022-12-18T08:16:20.637Z,14.88
2022-12-18T08:18:48.121Z,16.15
2022-12-18T08:21:24.206Z,12.45
2022-12-18T08:23:52.813Z,9.43
2022-12-18T08:26:21.034Z,14.70
2022-12-18T08:28:49.017Z,13.70
2022-12-18T08:31:16.855Z,11.60
2022-12-18T08:33:44.176Z,14.00
2022-12-18T08:36:11.999Z,14.95
2022-12-18T08:38:39.197Z,14.77
2022-12-18T08:41:09.098Z,10.00
2022-12-18T08:43:54.960Z,13.50
2022-12-18T08:46:23.745Z,9.30
2022-12-18T08:48:53.197Z,12.77
2022-12-18T08:51:21.311Z,13.13
2022-12-18T08:53:48.798Z,18.33
2022-12-18T08:56:16.664Z,11.77
2022-12-18T08:58:43.987Z,11.77
2022-12-18T09:01:13.380Z,14.77
2022-12-18T09:03:41.428Z,16.27
2022-12-18T09:06:09.488Z,13.13
2022-12-18T09:08:38.105Z,14.00
2022-12-18T09:11:05.715Z,14.25
2022-12-18T09:13:32.781Z,14.80
2022-12-18T09:16:04.936Z,11.50
2022-12-18T09:18:31.995Z,12.95
2022-12-18T09:20:59.063Z,15.15
2022-12-18T09:23:26.065Z,13.02
2022-12-18T09:25:53.181Z,12.13
2022-12-18T09:28:20.395Z,16.20
2022-12-18T09:30:50.043Z,13.85
2022-12-18T09:33:18.076Z,10.90
2022-12-18T09:35:46.240Z,11.60
2022-12-18T09:38:16.248Z,11.80
2022-12-18T09:40:53.853Z,10.57
2022-12-18T09:43:42.473Z,13.13
2022-12-18T09:46:17.201Z,12.82
2022-12-18T09:48:48.953Z,12.90
2022-12-18T09:51:32.173Z,13.85
2022-12-18T09:54:05.895Z,10.25
2022-12-18T09:56:38.761Z,11.77
2022-12-18T09:59:06.739Z,11.55
2022-12-18T10:01:43.133Z,12.45
2022-12-18T10:04:11.568Z,13.65
2022-12-18T10:07:04.420Z,12.75
2022-12-18T10:09:54.905Z,13.13
2022-12-18T10:12:51.305Z,9.48
2022-12-18T10:15:31.692Z,14.02
2022-12-18T10:18:22.592Z,12.95
2022-12-18T10:20:56.598Z,10.80
2022-12-18T10:23:46.413Z,13.50
2022-12-18T10:26:15.195Z,14.32
2022-12-18T10:28:44.855Z,12.65
2022-12-18T10:31:14.995Z,10.25
2022-12-18T10:33:42.457Z,10.68
2022-12-18T10:36:09.751Z,10.95
2022-12-18T10:38:37.102Z,12.10
2022-12-18T10:41:06.942Z,12.07
2022-12-18T10:43:36.613Z,11.65
2022-12-18T10:46:09.725Z,12.38
2022-12-18T10:48:49.275Z,13.50
2022-12-18T10:51:26.704Z,10.70
2022-12-18T10:54:04.677Z,10.52
2022-12-18T10:56:36.855Z,12.80
2022-12-18T10:59:09.730Z,13.80
2022-12-18T11:01:57.752Z,13.48
2022-12-18T11:04:32.813Z,14.98
2022-12-18T11:07:05.243Z,12.60
2022-12-18T11:09:36.946Z,12.32
2022-12-18T11:12:15.581Z,12.32
2022-12-18T11:14:47.420Z,12.60
2022-12-18T11:17:31.571Z,13.45
2022-12-18T11:20:01.073Z,13.52
2022-12-18T11:22:30.502Z,14.13
2022-12-18T11:28:02.038Z,11.95
2022-12-18T11:30:37.339Z,15.18
2022-12-18T11:33:11.322Z,12.40
2022-12-18T11:35:52.357Z,13.77
2022-12-18T11:38:42.012Z,13.15
2022-12-18T11:41:18.341Z,16.50
2022-12-18T11:44:05.221Z,16.35
2022-12-18T11:46:39.110Z,17.23
2022-12-18T11:49:13.640Z,17.33
2022-12-18T11:51:52.845Z,17.27
2022-12-18T11:54:21.549Z,17.33
2022-12-18T11:57:06.744Z,15.48
2022-12-18T11:59:41.644Z,14.00
2022-12-18T12:02:27.507Z,16.25
2022-12-18T12:05:32.552Z,17.67
2022-12-18T12:08:35.233Z,16.13
2022-12-18T12:11:35.406Z,15.70
2022-12-18T12:14:15.816Z,15.52
2022-12-18T12:16:58.598Z,17.08
2022-12-18T12:19:47.231Z,18.80
2022-12-18T12:22:39.858Z,21.00
2022-12-18T12:25:34.546Z,19.63
2022-12-18T12:28:19.098Z,18.33
2022-12-18T12:33:34.979Z,17.73
2022-12-18T12:36:22.653Z,18.65
2022-12-18T12:38:56.528Z,17.67
2022-12-18T12:41:46.703Z,18.73
2022-12-18T12:44:24.795Z,19.20
2022-12-18T12:46:56.519Z,15.35
2022-12-18T12:49:27.746Z,17.23
2022-12-18T12:52:08.410Z,19.20
2022-12-18T12:54:38.532Z,22.45
2022-12-18T12:57:19.315Z,19.08
2022-12-18T13:00:27.028Z,21.52
2022-12-18T13:03:40.957Z,18.92
2022-12-18T13:06:24.829Z,20.77
2022-12-18T13:09:01.438Z,19.73
2022-12-18T13:11:59.494Z,18.70
2022-12-18T13:14:31.829Z,18.48
2022-12-18T13:17:26.124Z,20.10
2022-12-18T13:20:05.329Z,19.92
2022-12-18T13:22:48.484Z,23.13
2022-12-18T13:25:39.432Z,17.40
2022-12-18T13:28:17.978Z,22.40
2022-12-18T13:30:48.151Z,19.58
2022-12-18T13:33:18.839Z,24.35
2022-12-18T13:35:49.186Z,20.50
2022-12-18T13:38:25.494Z,21.77
2022-12-18T13:40:52.769Z,17.55
2022-12-18T13:43:23.063Z,20.02
2022-12-18T13:46:42.129Z,21.98
2022-12-18T13:49:15.441Z,21.38
2022-12-18T13:51:48.885Z,19.73
2022-12-18T13:54:36.783Z,21.58
2022-12-18T13:57:07.654Z,23.10
2022-12-18T13:59:39.854Z,23.15
2022-12-18T14:02:24.455Z,26.70
2022-12-18T14:04:54.514Z,19.90
2022-12-18T14:07:31.373Z,22.35
2022-12-18T14:10:45.468Z,20.95
2022-12-18T14:13:11.789Z,23.85
2022-12-18T14:15:49.050Z,21.20
2022-12-18T14:18:35.260Z,25.70
2022-12-18T14:21:04.988Z,22.90
2022-12-18T14:23:42.693Z,22.88
2022-12-18T14:26:31.205Z,24.20
2022-12-18T14:29:02.514Z,19.80
2022-12-18T14:31:31.647Z,21.92
2022-12-18T14:33:59.237Z,21.38
2022-12-18T14:36:28.762Z,22.58
2022-12-18T14:38:57.921Z,25.08
2022-12-18T14:41:26.203Z,24.85
2022-12-18T14:43:55.661Z,21.27
2022-12-18T14:46:31.731Z,21.83
2022-12-18T14:48:59.619Z,24.23
2022-12-18T14:51:29.120Z,24.67
2022-12-18T14:54:01.505Z,24.00
2022-12-18T14:56:44.559Z,26.13
2022-12-18T14:59:23.841Z,25.67
2022-12-18T15:02:12.066Z,22.90
2022-12-18T15:04:44.466Z,25.17
2022-12-18T15:07:15.285Z,24.15
2022-12-18T15:09:45.989Z,22.42
2022-12-18T15:12:29.888Z,22.65
2022-12-18T15:14:57.111Z,28.45
2022-12-18T15:17:26.142Z,23.83
2022-12-18T15:20:05.167Z,24.23
2022-12-18T15:22:36.712Z,26.08
2022-12-18T15:25:22.885Z,23.23
2022-12-18T15:27:53.248Z,26.13
2022-12-18T15:30:23.530Z,26.10
2022-12-18T15:32:51.756Z,25.60
2022-12-18T15:35:22.755Z,24.60
2022-12-18T15:37:51.549Z,24.38
2022-12-18T15:40:21.324Z,28.30
2022-12-18T15:43:08.064Z,23.55
2022-12-18T15:45:35.393Z,28.48
2022-12-18T15:48:02.739Z,23.02
2022-12-18T15:50:30.075Z,24.98
2022-12-18T15:52:58.231Z,27.98
2022-12-18T15:55:44.312Z,26.70
2022-12-18T15:58:12.883Z,22.67
2022-12-18T16:00:41.960Z,21.85
2022-12-18T16:03:11.029Z,27.13
2022-12-18T16:05:38.452Z,28.98
2022-12-18T16:08:05.981Z,25.58
2022-12-18T16:10:33.268Z,32.15
2022-12-18T16:13:00.480Z,28.88
2022-12-18T16:15:27.736Z,29.20
2022-12-18T16:17:55.002Z,30.70
2022-12-18T16:20:23.944Z,26.88
2022-12-18T16:22:51.205Z,25.50
2022-12-18T16:25:27.138Z,35.33
2022-12-18T16:27:56.454Z,31.45
2022-12-18T16:30:32.018Z,31.92
2022-12-18T16:33:07.572Z,33.78
2022-12-18T16:35:35.488Z,26.10
2022-12-18T16:38:02.541Z,27.13
2022-12-18T16:40:32.778Z,30.13
2022-12-18T16:43:00.178Z,35.80
2022-12-18T16:45:27.493Z,28.48
2022-12-18T16:47:54.679Z,30.05
2022-12-18T16:50:21.837Z,31.63
2022-12-18T16:52:49.057Z,29.48
2022-12-18T16:55:16.432Z,35.20
2022-12-18T16:57:43.700Z,30.08
2022-12-18T17:00:11.789Z,33.25
2022-12-18T17:02:39.842Z,32.58
2022-12-18T17:05:07.575Z,29.15
2022-12-18T17:07:35.681Z,31.10
2022-12-18T17:10:04.294Z,33.70
2022-12-18T17:12:31.761Z,31.42
2022-12-18T17:15:00.026Z,32.72
2022-12-18T17:17:27.334Z,34.55
2022-12-18T17:19:54.758Z,31.50
2022-12-18T17:22:23.562Z,35.30
2022-12-18T17:24:50.884Z,35.85
2022-12-18T17:27:18.110Z,33.78
2022-12-18T17:29:48.284Z,30.25
2022-12-18T17:32:17.602Z,30.63
2022-12-18T17:34:44.846Z,38.60
2022-12-18T17:37:12.193Z,34.03
2022-12-18T17:39:40.019Z,31.52
2022-12-18T17:42:07.700Z,35.60
2022-12-18T17:44:37.126Z,31.42
2022-12-18T17:47:06.298Z,38.40
2022-12-18T17:49:33.580Z,31.80
2022-12-18T17:52:00.878Z,35.95
2022-12-18T17:54:28.137Z,39.75
2022-12-18T17:56:55.446Z,29.27
2022-12-18T17:59:22.875Z,34.60
2022-12-18T18:01:51.381Z,34.08
2022-12-18T18:04:19.499Z,37.97
2022-12-18T18:06:46.823Z,30.90
2022-12-18T18:09:16.023Z,36.47
2022-12-18T18:12:05.183Z,28.45
2022-12-18T18:14:33.585Z,36.67
2022-12-18T18:17:04.924Z,42.50
2022-12-18T18:19:33.705Z,30.77
2022-12-18T18:22:01.762Z,38.00
2022-12-18T18:24:30.381Z,39.20
2022-12-18T18:26:59.788Z,38.83
2022-12-18T18:29:28.959Z,32.58
2022-12-18T18:31:56.837Z,34.35
2022-12-18T18:34:28.192Z,35.42
2022-12-18T18:36:55.408Z,34.85
2022-12-18T18:39:23.226Z,35.38
2022-12-18T18:41:50.831Z,32.95
2022-12-18T18:44:24.418Z,34.17
2022-12-18T18:46:58.387Z,32.42
2022-12-18T18:49:28.086Z,39.45
2022-12-18T18:51:57.061Z,35.58
2022-12-18T18:54:26.360Z,36.65
2022-12-18T18:57:19.310Z,35.35
2022-12-18T18:59:40.769Z,35.30
2022-12-18T19:02:12.406Z,34.63
2022-12-18T19:04:46.145Z,37.80
2022-12-18T19:07:26.157Z,29.95
2022-12-18T19:09:57.345Z,35.00
2022-12-18T19:12:45.410Z,43.60
2022-12-18T19:15:12.688Z,39.15
2022-12-18T19:17:42.443Z,44.17
2022-12-18T19:20:13.985Z,39.17
2022-12-18T19:22:41.187Z,32.58
2022-12-18T19:25:10.205Z,33.20
2022-12-18T19:27:40.278Z,33.58
2022-12-18T19:30:08.839Z,33.05
2022-12-18T19:32:36.543Z,35.47
2022-12-18T19:35:04.209Z,36.33
2022-12-18T19:37:31.691Z,36.38
2022-12-18T19:39:59.245Z,34.60
2022-12-18T19:42:35.027Z,33.10
2022-12-18T19:45:02.800Z,36.75
2022-12-18T19:47:31.056Z,41.50
2022-12-18T19:49:58.517Z,36.38
2022-12-18T19:52:28.406Z,41.70
2022-12-18T19:54:55.824Z,35.35
2022-12-18T19:57:23.358Z,33.60
2022-12-18T19:59:50.632Z,35.47
2022-12-18T20:02:19.860Z,38.58
2022-12-18T20:04:50.413Z,39.10
2022-12-18T20:07:18.039Z,37.13
2022-12-18T20:09:45.604Z,36.60
2022-12-18T20:12:14.276Z,37.35
2022-12-18T20:14:41.638Z,32.95
2022-12-18T20:17:08.924Z,34.92
2022-12-18T20:19:36.716Z,35.78
2022-12-18T20:22:04.444Z,37.78
2022-12-18T20:24:31.677Z,34.95
2022-12-18T20:26:59.023Z,35.78
2022-12-18T20:29:26.591Z,33.67
2022-12-18T20:31:54.209Z,37.50
2022-12-18T20:34:21.541Z,35.40
2022-12-18T20:36:49.101Z,32.08
2022-12-18T20:39:18.089Z,37.42
2022-12-18T20:41:46.596Z,38.95
2022-12-18T20:44:22.726Z,34.60
2022-12-18T20:47:07.440Z,37.30
2022-12-18T20:49:36.115Z,33.30
2022-12-18T20:52:06.247Z,38.38
2022-12-18T20:54:33.653Z,33.97
2022-12-18T20:57:00.852Z,31.60
2022-12-18T20:59:29.230Z,33.10
2022-12-18T21:01:57.988Z,34.10
2022-12-18T21:04:29.130Z,33.90
2022-12-18T21:07:02.359Z,35.03
2022-12-18T21:09:37.468Z,36.47
2022-12-18T21:12:25.344Z,38.13
2022-12-18T21:14:52.465Z,37.08
2022-12-18T21:17:19.650Z,36.65
2022-12-18T21:19:46.914Z,34.88
2022-12-18T21:22:15.330Z,32.60
2022-12-18T21:24:42.700Z,36.22
2022-12-18T21:27:10.594Z,38.92
2022-12-18T21:29:41.394Z,37.70
2022-12-18T21:32:10.395Z,36.00
2022-12-18T21:34:37.967Z,36.97
2022-12-18T21:37:05.247Z,31.98
2022-12-18T21:39:32.937Z,36.65
2022-12-18T21:42:18.772Z,40.00
2022-12-18T21:44:49.294Z,32.30
2022-12-18T21:47:22.860Z,38.13
2022-12-18T21:52:19.011Z,31.55
2022-12-18T21:54:46.204Z,34.25
2022-12-18T21:57:13.663Z,34.70
2022-12-18T21:59:43.803Z,37.13
2022-12-18T22:02:20.379Z,38.08
2022-12-18T22:04:47.979Z,37.25
2022-12-18T22:07:16.805Z,36.78
2022-12-18T22:09:43.996Z,37.30
2022-12-18T22:12:13.287Z,36.33
2022-12-18T22:14:40.668Z,35.88
2022-12-18T22:17:12.041Z,34.55
2022-12-18T22:19:43.072Z,39.00
2022-12-18T22:22:10.520Z,40.20
2022-12-18T22:24:37.789Z,38.10
2022-12-18T22:27:04.922Z,40.80
2022-12-18T22:29:50.934Z,42.13
2022-12-18T22:32:25.595Z,37.40
2022-12-18T22:35:05.302Z,37.05
2022-12-18T22:37:37.076Z,39.13
2022-12-18T22:40:06.209Z,37.05
2022-12-18T22:42:34.625Z,42.25
2022-12-18T22:45:02.001Z,43.13
2022-12-18T22:47:30.319Z,46.25
2022-12-18T22:49:58.516Z,44.35
2022-12-18T22:52:26.083Z,38.83
2022-12-18T22:54:54.241Z,37.70
2022-12-18T22:57:23.208Z,39.42
2022-12-18T22:59:51.320Z,46.47
2022-12-18T23:02:19.748Z,44.20
2022-12-18T23:04:47.954Z,41.83
2022-12-18T23:07:16.599Z,44.17
2022-12-18T23:09:44.256Z,41.05
2022-12-18T23:12:16.294Z,45.33
2022-12-18T23:14:43.549Z,41.88
2022-12-18T23:17:10.857Z,42.53
2022-12-18T23:19:38.148Z,42.25
2022-12-18T23:22:11.418Z,40.10
2022-12-18T23:24:39.063Z,45.75
2022-12-18T23:27:09.094Z,41.78
2022-12-18T23:29:39.723Z,38.78
2022-12-18T23:32:07.184Z,38.55
2022-12-18T23:34:34.458Z,43.00
2022-12-18T23:37:03.914Z,43.92
2022-12-18T23:39:31.422Z,44.45
2022-12-18T23:41:59.511Z,38.55
2022-12-18T23:44:27.305Z,42.28
2022-12-18T23:46:55.075Z,40.67
2022-12-18T23:49:22.752Z,36.20
2022-12-18T23:51:50.062Z,45.95
2022-12-18T23:54:17.600Z,40.08
2022-12-18T23:56:50.093Z,38.17
2022-12-18T23:59:20.296Z,38.63
